Time;durP1;ratioP1;P1;durP2;ratioP2;P2;SDS_P1;SDS_P2;PMS_P1;PMS_P2;Temp;Humidity;BMP_temperature;BMP_pressure;BME280_temperature;BME280_humidity;BME280_pressure;Samples;Min_cycle;Max_cycle;Signal;HPM_P1;HPM_P2
2021/11/30 00:01:50;;;;;;;10.82;5.30;;;4.30;99.90;;;;;;5053002;28;20047;-80
2021/11/30 00:04:17;;;;;;;9.45;5.10;;;4.20;99.90;;;;;;5048094;28;20493;-80
2021/11/30 00:06:46;;;;;;;11.70;5.00;;;4.20;99.90;;;;;;5050284;28;20044;-80
2021/11/30 00:12:11;;;;;;;12.77;5.35;;;4.10;99.90;;;;;;5027641;28;20029;-80
2021/11/30 00:14:39;;;;;;;8.57;5.10;;;4.20;99.90;;;;;;5046903;28;20052;-81
2021/11/30 00:17:06;;;;;;;16.83;5.50;;;4.20;99.90;;;;;;5053796;28;20057;-81
2021/11/30 00:19:34;;;;;;;9.82;5.10;;;4.20;99.90;;;;;;5053336;28;20033;-80
2021/11/30 00:22:00;;;;;;;10.40;5.25;;;4.20;99.90;;;;;;5053441;28;20041;-81
2021/11/30 00:24:29;;;;;;;10.13;5.07;;;4.30;99.90;;;;;;5046370;28;20195;-85
2021/11/30 00:27:01;;;;;;;9.00;4.82;;;4.20;99.90;;;;;;5047816;28;20508;-81
2021/11/30 00:29:27;;;;;;;11.70;4.63;;;4.20;99.90;;;;;;5062078;28;20059;-82
2021/11/30 00:31:55;;;;;;;10.93;5.38;;;4.20;99.90;;;;;;5048502;28;20653;-85
2021/11/30 00:34:22;;;;;;;9.73;4.57;;;4.20;99.90;;;;;;5052961;28;20207;-85
2021/11/30 00:36:48;;;;;;;10.77;4.65;;;4.20;99.90;;;;;;5044719;28;20039;-79
2021/11/30 00:39:14;;;;;;;11.50;5.03;;;3.90;99.90;;;;;;5051376;28;20037;-81
2021/11/30 00:41:46;;;;;;;10.25;5.35;;;4.10;99.90;;;;;;5043597;28;20049;-79
2021/11/30 00:44:15;;;;;;;7.63;4.90;;;4.00;99.90;;;;;;5049732;28;20025;-80
2021/11/30 00:46:42;;;;;;;9.13;4.20;;;4.20;99.90;;;;;;5033645;28;20350;-82
2021/11/30 00:49:08;;;;;;;8.50;4.80;;;4.10;99.90;;;;;;5047227;28;20047;-83
2021/11/30 00:51:39;;;;;;;10.38;5.13;;;4.20;99.90;;;;;;5060827;28;20032;-79
2021/11/30 00:54:07;;;;;;;9.23;4.00;;;4.10;99.90;;;;;;5046958;28;20030;-81
2021/11/30 00:56:39;;;;;;;7.65;4.75;;;4.30;99.90;;;;;;5045882;28;20033;-80
2021/11/30 00:59:05;;;;;;;9.07;4.90;;;4.30;99.90;;;;;;5051919;28;20060;-81
2021/11/30 01:01:32;;;;;;;11.13;5.03;;;4.30;99.90;;;;;;5043309;28;20021;-81
2021/11/30 01:03:59;;;;;;;10.80;5.68;;;4.30;99.90;;;;;;5045149;28;20028;-78
2021/11/30 01:06:25;;;;;;;10.43;5.00;;;4.40;99.90;;;;;;5055921;28;20029;-82
2021/11/30 01:08:51;;;;;;;10.48;4.75;;;4.10;99.90;;;;;;5053844;28;20033;-80
2021/11/30 01:11:25;;;;;;;11.55;5.07;;;4.10;99.90;;;;;;5043939;28;20084;-81
2021/11/30 01:13:51;;;;;;;7.45;4.55;;;4.10;99.90;;;;;;5031992;28;20123;-80
2021/11/30 01:16:17;;;;;;;8.18;5.32;;;4.20;99.90;;;;;;5046327;28;20025;-82
2021/11/30 01:18:44;;;;;;;9.15;5.45;;;4.20;99.90;;;;;;5052012;28;20040;-82
2021/11/30 01:21:10;;;;;;;7.85;4.85;;;4.20;99.90;;;;;;5045723;28;20450;-81
2021/11/30 01:23:36;;;;;;;11.27;5.53;;;4.20;99.90;;;;;;5048304;28;20052;-81
2021/11/30 01:26:03;;;;;;;10.20;5.32;;;4.10;99.90;;;;;;5048707;28;20060;-82
2021/11/30 01:28:30;;;;;;;9.32;4.97;;;4.00;99.90;;;;;;5059963;28;20056;-81
2021/11/30 01:30:56;;;;;;;10.32;5.18;;;4.00;99.90;;;;;;5050152;28;20064;-80
2021/11/30 01:33:22;;;;;;;15.88;6.20;;;4.00;99.90;;;;;;5048638;28;20361;-81
2021/11/30 01:35:49;;;;;;;13.57;6.53;;;4.00;99.90;;;;;;5049300;28;20025;-79
2021/11/30 01:38:15;;;;;;;10.23;5.90;;;3.90;99.90;;;;;;5046813;28;20033;-80
2021/11/30 01:40:43;;;;;;;11.43;5.90;;;4.00;99.90;;;;;;5045377;28;20563;-83
2021/11/30 01:43:14;;;;;;;13.18;6.28;;;4.00;99.90;;;;;;5047648;28;20056;-81
2021/11/30 01:50:51;;;;;;;13.35;6.50;;;4.00;99.90;;;;;;5055784;28;20028;-81
2021/11/30 01:53:18;;;;;;;11.52;6.47;;;3.90;99.90;;;;;;5048833;28;20021;-81
2021/11/30 01:55:45;;;;;;;16.05;6.60;;;3.90;99.90;;;;;;5041600;28;20513;-79
2021/11/30 01:58:12;;;;;;;14.32;6.75;;;3.90;99.90;;;;;;5045591;28;20025;-80
2021/11/30 02:00:39;;;;;;;9.80;5.80;;;4.00;99.90;;;;;;5043739;28;20056;-81
2021/11/30 02:03:06;;;;;;;15.88;7.15;;;3.90;99.90;;;;;;5045750;28;20029;-79
2021/11/30 02:05:37;;;;;;;11.25;6.80;;;3.90;99.90;;;;;;5041192;28;20486;-79
2021/11/30 02:08:05;;;;;;;9.57;6.13;;;3.90;99.90;;;;;;5051369;28;21055;-81
2021/11/30 02:10:31;;;;;;;16.52;7.40;;;;;;;;;;5047899;28;20096;-82
2021/11/30 02:12:58;;;;;;;14.88;7.18;;;3.90;99.90;;;;;;5043993;28;20036;-81
2021/11/30 02:15:26;;;;;;;13.05;6.80;;;4.00;99.90;;;;;;5042634;28;20493;-82
2021/11/30 02:17:57;;;;;;;13.15;6.78;;;4.00;99.90;;;;;;5045662;28;20029;-80
2021/11/30 02:20:24;;;;;;;19.30;7.57;;;4.00;99.90;;;;;;5046834;28;20064;-81
2021/11/30 02:22:54;;;;;;;14.82;7.43;;;3.90;99.90;;;;;;5043899;28;20033;-84
2021/11/30 02:25:23;;;;;;;14.60;7.57;;;3.90;99.90;;;;;;5063946;28;20029;-79
2021/11/30 02:27:51;;;;;;;13.65;7.45;;;3.90;99.90;;;;;;5062466;28;20021;-84
2021/11/30 02:30:18;;;;;;;11.90;7.68;;;3.90;99.90;;;;;;5045827;28;20037;-80
2021/11/30 02:32:45;;;;;;;16.00;6.97;;;5.00;99.90;;;;;;5041195;28;20055;-79
2021/11/30 02:35:11;;;;;;;16.00;8.70;;;3.90;99.90;;;;;;5047040;28;20021;-82
2021/11/30 02:37:43;;;;;;;15.65;7.45;;;4.00;99.90;;;;;;5043920;28;20036;-80
2021/11/30 02:40:10;;;;;;;15.15;6.97;;;3.90;99.90;;;;;;5036671;28;20059;-81
2021/11/30 02:42:36;;;;;;;15.73;7.40;;;3.90;99.90;;;;;;5040306;28;20029;-80
2021/11/30 02:45:03;;;;;;;12.82;7.55;;;4.10;99.90;;;;;;5038690;28;20496;-79
2021/11/30 02:47:29;;;;;;;13.63;7.97;;;4.10;99.90;;;;;;5041556;28;20029;-80
2021/11/30 02:49:57;;;;;;;13.63;7.38;;;4.10;99.90;;;;;;5048090;28;20024;-79
2021/11/30 02:52:23;;;;;;;13.93;7.07;;;3.90;99.90;;;;;;5044908;28;20371;-81
2021/11/30 02:54:54;;;;;;;13.35;7.32;;;3.90;99.90;;;;;;5046181;28;20092;-80
2021/11/30 02:57:22;;;;;;;14.20;7.10;;;3.90;99.90;;;;;;5044583;28;20033;-78
2021/11/30 02:59:50;;;;;;;12.23;7.38;;;4.00;99.90;;;;;;5046096;28;20048;-79
2021/11/30 03:02:25;;;;;;;12.98;7.68;;;3.90;99.90;;;;;;5044885;28;20489;-81
2021/11/30 03:04:57;;;;;;;12.75;6.80;;;3.90;99.90;;;;;;5046963;28;20059;-79
2021/11/30 03:07:38;;;;;;;12.95;7.25;;;3.90;99.90;;;;;;5042419;28;20029;-80
2021/11/30 03:10:14;;;;;;;13.63;6.78;;;3.90;99.90;;;;;;5039287;28;20026;-79
2021/11/30 03:12:40;;;;;;;14.23;8.00;;;3.90;99.90;;;;;;5038092;28;20499;-79
2021/11/30 03:15:07;;;;;;;13.55;7.78;;;4.00;99.90;;;;;;5045199;28;20051;-79
2021/11/30 03:17:34;;;;;;;11.60;7.15;;;4.00;99.90;;;;;;5044231;28;20029;-79
2021/11/30 03:20:00;;;;;;;12.68;6.57;;;4.00;99.90;;;;;;5046834;28;20100;-81
2021/11/30 03:22:26;;;;;;;15.27;7.13;;;;;;;;;;5025331;28;20060;-81
2021/11/30 03:24:52;;;;;;;12.77;7.22;;;;;;;;;;5044542;28;20404;-81
2021/11/30 03:27:18;;;;;;;14.27;7.20;;;3.90;99.90;;;;;;5058201;28;20083;-79
2021/11/30 03:29:44;;;;;;;14.98;6.85;;;4.00;99.90;;;;;;5047738;28;20354;-79
2021/11/30 03:33:58;;;;;;;14.43;7.45;;;3.90;99.90;;;;;;5051108;28;20025;-79
2021/11/30 03:34:56;;;;;;;13.40;6.68;;;3.90;99.90;;;;;;5050188;28;20052;-80
2021/11/30 03:37:22;;;;;;;12.65;7.03;;;;;;;;;;5045300;28;20029;-80
2021/11/30 03:39:48;;;;;;;13.25;7.80;;;3.90;99.90;;;;;;5046822;28;20037;-80
2021/11/30 03:42:14;;;;;;;16.92;7.93;;;3.90;99.90;;;;;;5038686;28;20117;-81
2021/11/30 03:44:40;;;;;;;15.00;7.85;;;3.80;99.90;;;;;;5045777;28;20097;-81
2021/11/30 03:47:06;;;;;;;12.30;7.50;;;3.80;99.90;;;;;;5042656;28;20397;-83
2021/11/30 03:49:32;;;;;;;15.65;8.93;;;3.70;99.90;;;;;;5047228;28;20036;-81
2021/11/30 03:51:58;;;;;;;17.67;8.90;;;3.60;99.90;;;;;;5047095;28;20447;-80
2021/11/30 03:54:25;;;;;;;13.00;7.93;;;3.60;99.90;;;;;;5049197;28;20037;-80
2021/11/30 03:56:51;;;;;;;17.73;7.80;;;;;;;;;;5040724;28;20132;-80
2021/11/30 03:59:18;;;;;;;13.50;7.65;;;3.70;99.90;;;;;;5050741;28;20042;-82
2021/11/30 04:01:45;;;;;;;15.40;7.68;;;3.70;99.90;;;;;;5052182;28;20033;-80
2021/11/30 04:04:56;;;;;;;15.75;7.57;;;;;;;;;;5044657;28;20041;-80
2021/11/30 04:06:58;;;;;;;14.00;7.70;;;3.70;99.90;;;;;;5035189;28;20033;-80
2021/11/30 04:09:25;;;;;;;13.80;7.15;;;3.70;99.90;;;;;;5046049;28;20033;-80
2021/11/30 04:11:53;;;;;;;12.27;5.65;;;3.60;99.90;;;;;;5042635;28;20402;-78
2021/11/30 04:14:19;;;;;;;12.68;7.07;;;3.70;99.90;;;;;;5047617;28;20370;-81
2021/11/30 04:16:46;;;;;;;10.73;5.95;;;3.80;99.90;;;;;;5042370;28;20287;-81
2021/11/30 04:19:13;;;;;;;13.45;6.05;;;3.80;99.90;;;;;;5047715;28;20021;-80
2021/11/30 04:21:39;;;;;;;13.38;7.05;;;3.70;99.90;;;;;;5041853;28;20036;-78
2021/11/30 04:24:05;;;;;;;12.95;7.32;;;3.80;99.90;;;;;;5051481;28;20056;-81
2021/11/30 04:26:31;;;;;;;11.73;6.82;;;3.70;99.90;;;;;;5045718;28;20057;-81
2021/11/30 04:28:57;;;;;;;16.45;6.25;;;3.70;99.90;;;;;;5051722;28;20029;-81
2021/11/30 04:31:23;;;;;;;11.18;6.53;;;3.70;99.90;;;;;;5045286;28;20036;-81
2021/11/30 04:33:50;;;;;;;10.05;5.70;;;3.80;99.90;;;;;;5049706;28;22724;-81
2021/11/30 04:36:16;;;;;;;13.13;5.50;;;3.70;99.90;;;;;;5047457;28;20123;-80
2021/11/30 04:38:42;;;;;;;11.07;5.63;;;3.70;99.90;;;;;;5054273;28;20059;-80
2021/11/30 04:41:09;;;;;;;10.80;6.25;;;3.70;99.90;;;;;;5058076;28;20105;-81
2021/11/30 04:43:39;;;;;;;11.07;5.53;;;3.70;99.90;;;;;;5056006;28;20060;-82
2021/11/30 04:46:15;;;;;;;10.52;5.35;;;3.70;99.90;;;;;;5033355;28;20046;-80
2021/11/30 04:48:51;;;;;;;11.57;5.57;;;3.70;99.90;;;;;;5056316;28;20060;-81
2021/11/30 04:51:18;;;;;;;12.05;6.43;;;3.60;99.90;;;;;;5057471;28;20021;-81
2021/11/30 04:53:46;;;;;;;10.32;5.50;;;3.70;99.90;;;;;;5049499;28;20049;-80
2021/11/30 04:56:16;;;;;;;12.32;5.55;;;;;;;;;;5051509;28;20035;-80
2021/11/30 04:58:43;;;;;;;9.25;5.43;;;3.70;99.90;;;;;;5057943;28;20033;-81
2021/11/30 05:01:10;;;;;;;9.18;4.78;;;3.70;99.90;;;;;;5061267;28;20656;-83
2021/11/30 05:03:36;;;;;;;13.05;5.50;;;3.70;99.90;;;;;;5050392;28;20044;-80
2021/11/30 05:06:03;;;;;;;8.57;5.35;;;3.90;99.90;;;;;;5059624;28;20078;-80
2021/11/30 05:08:29;;;;;;;11.02;5.50;;;3.80;99.90;;;;;;5048711;28;20025;-80
2021/11/30 05:10:55;;;;;;;14.20;6.15;;;3.80;99.90;;;;;;5050073;28;20036;-83
2021/11/30 05:13:23;;;;;;;8.90;5.10;;;3.70;99.90;;;;;;5050474;28;20021;-79
2021/11/30 05:15:49;;;;;;;11.82;6.00;;;3.60;99.90;;;;;;5055938;28;20025;-83
2021/11/30 05:18:15;;;;;;;7.65;4.10;;;3.60;99.90;;;;;;5055224;28;20051;-80
2021/11/30 05:20:43;;;;;;;10.10;5.18;;;3.50;99.90;;;;;;5060412;28;20041;-82
2021/11/30 05:23:12;;;;;;;10.90;5.00;;;3.50;99.90;;;;;;5042920;28;20029;-80
2021/11/30 05:25:40;;;;;;;12.13;5.20;;;3.50;99.90;;;;;;5041678;28;20029;-82
2021/11/30 05:28:06;;;;;;;13.82;5.80;;;3.40;99.90;;;;;;5046521;28;20063;-78
2021/11/30 05:30:38;;;;;;;7.35;4.70;;;3.40;99.90;;;;;;5063951;28;20036;-81
2021/11/30 05:33:07;;;;;;;8.98;4.68;;;3.40;99.90;;;;;;5046579;28;20032;-79
2021/11/30 05:35:34;;;;;;;8.38;4.88;;;3.50;99.90;;;;;;5046759;28;20044;-80
2021/11/30 05:38:00;;;;;;;9.45;4.78;;;3.50;99.90;;;;;;5052296;28;20489;-81
2021/11/30 05:40:27;;;;;;;8.80;4.72;;;3.50;99.90;;;;;;5043126;28;20249;-81
2021/11/30 05:42:53;;;;;;;4.90;3.30;;;3.50;99.90;;;;;;5042588;28;20064;-81
2021/11/30 05:45:19;;;;;;;9.10;3.67;;;3.60;99.90;;;;;;5049635;28;20028;-80
2021/11/30 05:47:46;;;;;;;6.93;3.55;;;3.70;99.90;;;;;;5046242;28;20025;-80
2021/11/30 05:50:12;;;;;;;8.27;3.88;;;3.80;99.90;;;;;;5048434;28;20075;-83
2021/11/30 05:52:38;;;;;;;7.65;3.88;;;3.70;99.90;;;;;;5042483;28;20029;-82
2021/11/30 05:55:06;;;;;;;8.20;4.57;;;3.60;99.90;;;;;;5038513;28;20029;-81
2021/11/30 05:57:32;;;;;;;6.68;3.65;;;3.60;99.90;;;;;;5046168;28;20068;-80
2021/11/30 06:00:01;;;;;;;5.90;3.25;;;3.50;99.90;;;;;;5045311;28;20047;-81
2021/11/30 06:02:30;;;;;;;9.05;4.05;;;3.60;99.90;;;;;;5041767;28;20052;-79
2021/11/30 06:04:56;;;;;;;5.72;2.83;;;3.60;99.90;;;;;;5046854;28;20896;-80
2021/11/30 06:07:22;;;;;;;8.48;3.85;;;3.60;99.90;;;;;;5048719;28;20040;-81
2021/11/30 06:09:48;;;;;;;7.25;3.83;;;3.70;99.90;;;;;;5056242;28;20033;-82
2021/11/30 06:12:14;;;;;;;9.00;3.70;;;3.60;99.90;;;;;;5045012;28;20107;-82
2021/11/30 06:14:40;;;;;;;7.35;3.95;;;3.60;99.90;;;;;;5042765;28;20028;-82
2021/11/30 06:17:09;;;;;;;10.02;4.45;;;3.60;99.90;;;;;;5040488;28;20044;-80
2021/11/30 06:19:35;;;;;;;5.10;3.17;;;3.50;99.90;;;;;;5049723;28;20374;-80
2021/11/30 06:22:01;;;;;;;8.35;4.05;;;3.60;99.90;;;;;;5049635;28;20155;-83
2021/11/30 06:24:27;;;;;;;9.63;4.32;;;3.50;99.90;;;;;;5047640;28;20146;-82
2021/11/30 06:26:53;;;;;;;8.48;3.85;;;3.50;99.90;;;;;;5045387;28;20044;-78
2021/11/30 06:29:21;;;;;;;6.50;3.80;;;3.40;99.90;;;;;;5041911;28;20049;-79
2021/11/30 06:31:47;;;;;;;5.38;3.15;;;3.60;99.90;;;;;;5037561;28;20036;-80
2021/11/30 06:34:13;;;;;;;6.97;4.00;;;3.60;99.90;;;;;;5040532;28;20033;-80
2021/11/30 06:36:39;;;;;;;5.47;3.30;;;4.20;99.90;;;;;;5043130;28;20129;-84
2021/11/30 06:39:06;;;;;;;6.75;3.25;;;3.50;99.90;;;;;;5051240;28;20029;-82
2021/11/30 06:41:32;;;;;;;8.45;4.38;;;3.60;99.90;;;;;;5045300;28;20029;-81
2021/11/30 06:43:59;;;;;;;6.20;3.40;;;3.50;99.90;;;;;;5043552;28;20037;-83
2021/11/30 06:46:27;;;;;;;9.40;4.20;;;4.30;99.90;;;;;;5047401;28;20025;-81
2021/11/30 06:48:53;;;;;;;6.07;3.30;;;3.40;99.90;;;;;;5029079;28;20044;-86
2021/11/30 06:51:19;;;;;;;6.07;3.70;;;3.60;99.90;;;;;;5049735;28;20022;-83
2021/11/30 06:53:45;;;;;;;7.20;3.75;;;3.40;99.90;;;;;;5051113;28;20052;-82
2021/11/30 06:56:11;;;;;;;6.32;3.95;;;3.40;99.90;;;;;;5036743;28;20059;-81
2021/11/30 06:58:38;;;;;;;6.32;4.18;;;3.30;99.90;;;;;;5060249;28;20033;-81
2021/11/30 07:01:05;;;;;;;7.63;4.20;;;3.30;99.90;;;;;;5055903;28;20048;-81
2021/11/30 07:03:31;;;;;;;3.80;2.63;;;3.30;99.90;;;;;;5052573;28;20033;-81
2021/11/30 07:06:02;;;;;;;5.68;3.53;;;3.30;99.90;;;;;;5048676;28;20068;-79
2021/11/30 07:08:48;;;;;;;5.90;3.50;;;3.40;99.90;;;;;;5065247;28;20033;-84
2021/11/30 07:11:21;;;;;;;6.22;3.20;;;3.40;99.90;;;;;;5043683;28;20363;-80
2021/11/30 07:13:47;;;;;;;5.53;3.03;;;3.40;99.90;;;;;;5047542;28;20059;-80
2021/11/30 07:16:14;;;;;;;8.52;3.40;;;;;;;;;;5042449;28;20025;-80
2021/11/30 07:18:40;;;;;;;5.60;3.67;;;3.20;99.90;;;;;;5043215;28;20033;-79
2021/11/30 07:21:07;;;;;;;4.93;3.55;;;3.30;99.90;;;;;;5043176;28;20029;-79
2021/11/30 07:23:33;;;;;;;6.43;3.28;;;3.30;99.90;;;;;;5046849;28;20036;-80
2021/11/30 07:26:00;;;;;;;7.15;3.45;;;3.20;99.90;;;;;;5044204;28;20067;-80
2021/11/30 07:28:30;;;;;;;6.85;3.80;;;3.50;99.90;;;;;;5047062;28;20192;-79
2021/11/30 07:30:56;;;;;;;4.28;3.20;;;3.30;99.90;;;;;;5048687;28;20036;-79
2021/11/30 07:33:23;;;;;;;4.72;2.95;;;3.30;99.90;;;;;;5062085;28;20555;-81
2021/11/30 07:35:51;;;;;;;5.15;2.90;;;3.30;99.90;;;;;;5047964;28;20480;-80
2021/11/30 07:38:17;;;;;;;6.68;3.03;;;3.40;99.90;;;;;;5049520;28;20029;-80
2021/11/30 07:40:43;;;;;;;4.35;2.85;;;;;;;;;;5045662;28;20016;-81
2021/11/30 07:43:10;;;;;;;4.80;3.15;;;3.40;99.90;;;;;;5043012;28;20029;-80
2021/11/30 07:45:37;;;;;;;5.95;3.60;;;3.80;99.90;;;;;;5042645;28;20113;-82
2021/11/30 07:48:03;;;;;;;5.97;2.38;;;3.30;99.90;;;;;;5050106;28;20036;-80
2021/11/30 07:50:29;;;;;;;6.60;3.33;;;3.30;99.90;;;;;;5047552;28;20021;-83
2021/11/30 07:52:55;;;;;;;8.18;3.58;;;3.40;99.90;;;;;;5047939;28;20036;-82
2021/11/30 07:55:21;;;;;;;6.40;3.33;;;3.30;99.90;;;;;;5027213;28;20091;-79
2021/11/30 07:57:47;;;;;;;6.18;4.00;;;3.30;99.90;;;;;;5041759;28;20033;-81
2021/11/30 08:00:16;;;;;;;5.68;3.50;;;3.50;99.90;;;;;;5041275;28;20388;-80
2021/11/30 08:02:43;;;;;;;5.10;3.40;;;3.40;99.90;;;;;;5042975;28;20037;-80
2021/11/30 08:05:10;;;;;;;6.55;3.30;;;3.50;99.90;;;;;;5048598;28;20037;-80
2021/11/30 08:07:36;;;;;;;7.05;3.60;;;3.40;99.90;;;;;;5048711;28;20029;-83
2021/11/30 08:10:07;;;;;;;6.28;3.90;;;3.40;99.90;;;;;;5057914;28;20104;-82
2021/11/30 08:12:33;;;;;;;4.95;3.33;;;3.50;99.90;;;;;;5052213;28;20112;-82
2021/11/30 08:14:59;;;;;;;5.60;3.42;;;3.50;99.90;;;;;;5055096;28;20025;-82
2021/11/30 08:17:25;;;;;;;6.38;2.97;;;3.40;99.90;;;;;;5049851;28;20033;-82
2021/11/30 08:19:51;;;;;;;5.20;3.35;;;3.50;99.90;;;;;;5053866;28;20263;-81
2021/11/30 08:22:16;;;;;;;5.30;3.53;;;3.50;99.90;;;;;;5053973;28;20025;-80
2021/11/30 08:24:48;;;;;;;5.30;3.20;;;5.40;99.90;;;;;;5055495;28;20025;-80
2021/11/30 08:27:14;;;;;;;4.68;2.95;;;3.50;99.90;;;;;;5049673;28;20093;-81
2021/11/30 08:29:44;;;;;;;4.97;3.10;;;3.50;99.90;;;;;;5048744;28;20064;-83
2021/11/30 08:32:11;;;;;;;5.82;3.55;;;3.50;99.90;;;;;;5051973;28;20056;-82
2021/11/30 08:34:41;;;;;;;5.75;3.47;;;3.40;99.90;;;;;;5048847;28;20473;-80
2021/11/30 08:37:09;;;;;;;4.82;3.00;;;3.50;99.90;;;;;;5050420;28;23496;-80
2021/11/30 08:39:36;;;;;;;5.18;2.90;;;3.50;99.90;;;;;;5056940;28;20163;-80
2021/11/30 08:42:04;;;;;;;4.53;2.85;;;3.60;99.90;;;;;;5054518;28;20033;-83
2021/11/30 08:44:31;;;;;;;4.45;2.92;;;3.50;99.90;;;;;;5049902;28;20571;-81
2021/11/30 08:46:58;;;;;;;6.30;3.03;;;3.60;99.90;;;;;;5052418;28;20451;-82
2021/11/30 08:49:25;;;;;;;4.55;2.90;;;3.60;99.90;;;;;;5049757;28;20084;-81
2021/11/30 08:51:51;;;;;;;5.53;2.83;;;3.60;99.90;;;;;;5055313;28;20032;-83
2021/11/30 08:54:17;;;;;;;3.65;2.38;;;3.90;99.90;;;;;;5057943;28;20400;-83
2021/11/30 08:56:44;;;;;;;4.15;2.83;;;3.80;99.90;;;;;;5047670;28;20144;-82
2021/11/30 08:59:11;;;;;;;3.10;2.10;;;3.90;99.90;;;;;;5052300;28;20489;-82
2021/11/30 09:01:41;;;;;;;3.22;2.00;;;3.90;99.90;;;;;;5051729;28;20382;-82
2021/11/30 09:04:07;;;;;;;3.42;2.45;;;;;;;;;;5052978;28;20024;-81
2021/11/30 09:06:33;;;;;;;3.67;2.30;;;3.80;99.90;;;;;;5054023;28;20025;-81
2021/11/30 09:08:59;;;;;;;5.50;3.00;;;3.80;99.90;;;;;;5058167;28;20082;-81
2021/11/30 09:11:25;;;;;;;5.50;2.42;;;;;;;;;;5053879;28;20116;-81
2021/11/30 09:13:52;;;;;;;3.28;2.35;;;3.80;99.90;;;;;;5054769;28;20034;-81
2021/11/30 09:16:21;;;;;;;4.05;2.47;;;3.80;99.90;;;;;;5055484;28;20476;-83
2021/11/30 09:18:48;;;;;;;4.28;2.60;;;3.80;99.90;;;;;;5058907;28;20077;-83
2021/11/30 09:21:14;;;;;;;6.43;2.85;;;3.80;99.90;;;;;;5054801;28;20028;-82
2021/11/30 09:23:43;;;;;;;5.35;2.67;;;;;;;;;;5052244;28;20301;-82
2021/11/30 09:26:10;;;;;;;3.85;2.47;;;3.80;99.90;;;;;;5049670;28;20478;-82
2021/11/30 09:28:36;;;;;;;3.88;2.70;;;3.80;99.90;;;;;;5057533;28;20170;-83
2021/11/30 09:31:02;;;;;;;5.22;3.25;;;3.80;99.90;;;;;;5057543;28;20028;-81
2021/11/30 09:33:28;;;;;;;4.95;2.80;;;3.70;99.90;;;;;;5055896;28;20029;-81
2021/11/30 09:35:55;;;;;;;6.60;3.38;;;3.80;99.90;;;;;;5064260;28;20029;-81
2021/11/30 09:38:21;;;;;;;4.93;3.03;;;3.80;99.90;;;;;;5055840;28;20041;-85
2021/11/30 09:40:48;;;;;;;4.45;2.95;;;3.90;99.90;;;;;;5056162;28;20029;-82
2021/11/30 09:43:14;;;;;;;4.45;2.78;;;3.90;99.90;;;;;;5045700;28;20096;-83
2021/11/30 09:45:40;;;;;;;4.47;2.50;;;3.90;99.90;;;;;;5054368;28;20036;-80
2021/11/30 09:48:11;;;;;;;4.35;2.60;;;3.90;99.90;;;;;;5049988;28;20033;-82
2021/11/30 09:50:38;;;;;;;6.20;2.75;;;4.00;99.90;;;;;;5054639;28;20029;-81
2021/11/30 09:53:05;;;;;;;2.45;1.65;;;4.00;99.90;;;;;;5049200;28;20052;-80
2021/11/30 09:55:36;;;;;;;7.30;3.35;;;4.10;99.90;;;;;;5049101;28;20477;-80
2021/11/30 09:58:03;;;;;;;4.47;2.70;;;4.10;99.90;;;;;;5048185;28;20029;-80
2021/11/30 10:00:30;;;;;;;4.63;2.60;;;6.80;99.90;;;;;;5052889;28;20029;-81
2021/11/30 10:02:56;;;;;;;6.45;2.95;;;4.10;99.90;;;;;;5052650;28;20033;-82
2021/11/30 10:05:23;;;;;;;4.22;2.60;;;4.10;99.90;;;;;;5047900;28;20025;-81
2021/11/30 10:07:52;;;;;;;4.03;2.50;;;4.10;99.90;;;;;;5047998;28;20036;-81
2021/11/30 10:10:19;;;;;;;4.75;2.85;;;4.00;99.90;;;;;;5054855;28;20026;-80
2021/11/30 10:13:07;;;;;;;4.43;2.85;;;4.00;99.90;;;;;;5070427;28;20485;-81
2021/11/30 10:15:48;;;;;;;5.07;3.08;;;;;;;;;;5054970;28;20206;-81
2021/11/30 10:18:19;;;;;;;3.97;2.35;;;4.20;99.90;;;;;;5073117;28;20057;-81
2021/11/30 10:20:49;;;;;;;3.38;2.20;;;4.20;99.90;;;;;;5050452;28;20049;-81
2021/11/30 10:23:17;;;;;;;5.50;2.53;;;4.20;99.90;;;;;;5050888;28;20074;-83
2021/11/30 10:25:46;;;;;;;3.80;2.20;;;;;;;;;;5055354;28;20049;-82
2021/11/30 10:28:16;;;;;;;3.45;1.88;;;4.30;99.90;;;;;;5064917;28;20039;-81
2021/11/30 10:30:50;;;;;;;4.80;2.15;;;4.30;99.90;;;;;;5068536;23;20056;-83
2021/11/30 10:33:22;;;;;;;3.40;1.95;;;4.20;99.90;;;;;;5056114;28;20090;-81
2021/11/30 10:35:59;;;;;;;5.05;2.33;;;4.20;99.90;;;;;;5059643;28;20036;-84
2021/11/30 10:38:51;;;;;;;3.97;2.00;;;4.00;99.90;;;;;;5054157;28;20498;-86
2021/11/30 10:41:19;;;;;;;3.40;2.20;;;5.90;99.90;;;;;;5055917;28;20058;-85
2021/11/30 10:43:58;;;;;;;3.10;1.83;;;4.30;99.90;;;;;;5053971;28;20021;-83
2021/11/30 10:46:34;;;;;;;3.20;1.80;;;4.30;99.90;;;;;;5061394;28;20024;-84
2021/11/30 10:49:01;;;;;;;2.45;1.60;;;4.30;99.90;;;;;;5067329;28;20100;-87
2021/11/30 10:51:30;;;;;;;3.80;2.15;;;4.30;99.90;;;;;;5059442;28;20028;-86
2021/11/30 10:53:59;;;;;;;25.17;8.98;;;4.40;99.90;;;;;;5069214;28;20024;-84
2021/11/30 10:56:25;;;;;;;3.25;1.85;;;;;;;;;;5058941;28;20042;-83
2021/11/30 10:58:54;;;;;;;6.15;1.80;;;4.50;99.90;;;;;;5061110;28;20086;-82
2021/11/30 11:01:22;;;;;;;2.65;1.77;;;4.40;99.90;;;;;;5058650;28;20028;-83
2021/11/30 11:04:08;;;;;;;2.42;1.42;;;4.40;99.90;;;;;;5070532;28;20043;-85
2021/11/30 11:06:37;;;;;;;4.60;2.42;;;4.40;99.90;;;;;;5056729;28;20031;-82
2021/11/30 11:09:04;;;;;;;2.88;1.70;;;;;;;;;;5055631;28;20035;-83
2021/11/30 11:11:38;;;;;;;2.38;1.48;;;4.40;99.90;;;;;;5058996;28;20050;-87
2021/11/30 11:14:15;;;;;;;2.78;1.70;;;4.40;99.90;;;;;;5059873;28;20029;-84
2021/11/30 11:16:42;;;;;;;2.17;1.60;;;;;;;;;;5064693;28;20078;-84
2021/11/30 11:19:09;;;;;;;2.78;1.58;;;4.30;99.90;;;;;;5058172;28;20028;-84
2021/11/30 11:21:38;;;;;;;2.80;1.75;;;4.30;99.90;;;;;;5063050;28;20048;-83
2021/11/30 11:24:17;;;;;;;3.40;2.00;;;5.40;99.90;;;;;;5061767;28;20025;-83
2021/11/30 11:26:50;;;;;;;3.60;1.90;;;7.60;99.90;;;;;;5071822;28;20021;-82
2021/11/30 11:29:21;;;;;;;2.92;1.70;;;4.40;99.90;;;;;;5068049;28;20508;-84
2021/11/30 11:31:55;;;;;;;2.60;1.63;;;4.40;99.90;;;;;;5071981;28;20304;-81
2021/11/30 11:34:24;;;;;;;3.20;1.92;;;;;;;;;;5063487;28;20113;-81
2021/11/30 11:36:51;;;;;;;5.38;2.13;;;4.40;99.90;;;;;;5053732;28;20033;-85
2021/11/30 11:39:19;;;;;;;3.47;2.17;;;4.40;99.90;;;;;;5073519;28;20029;-82
2021/11/30 11:41:55;;;;;;;3.17;1.70;;;4.60;99.90;;;;;;5064200;28;20028;-81
2021/11/30 11:44:22;;;;;;;4.25;2.40;;;4.50;99.90;;;;;;5055993;28;20055;-83
2021/11/30 11:46:49;;;;;;;3.75;2.20;;;4.50;99.90;;;;;;5060655;28;20497;-83
2021/11/30 11:49:21;;;;;;;3.38;1.90;;;4.50;99.90;;;;;;5058293;28;20075;-86
2021/11/30 11:51:48;;;;;;;3.35;1.95;;;6.90;99.90;;;;;;5053290;28;20037;-83
2021/11/30 11:54:29;;;;;;;2.97;1.63;;;4.60;99.90;;;;;;5061632;28;20024;-82
2021/11/30 11:56:57;;;;;;;;;;;4.60;99.90;;;;;;5050626;28;20035;-80
2021/11/30 11:59:27;;;;;;;3.72;2.15;;;4.90;99.90;;;;;;5067927;28;20301;-81
2021/11/30 12:02:13;;;;;;;3.13;2.03;;;4.60;99.90;;;;;;5071831;28;20070;-84
2021/11/30 12:04:42;;;;;;;3.30;2.10;;;4.60;99.90;;;;;;5042340;28;20049;-85
2021/11/30 12:07:08;;;;;;;4.25;1.77;;;4.60;99.90;;;;;;5054911;28;20031;-82
2021/11/30 12:09:36;;;;;;;4.43;2.40;;;4.70;99.90;;;;;;5074151;28;20024;-83
2021/11/30 12:12:21;;;;;;;3.85;2.20;;;4.60;99.90;;;;;;5068219;28;20127;-85
2021/11/30 12:14:49;;;;;;;2.67;1.80;;;;;;;;;;5080344;28;20088;-84
2021/11/30 12:17:21;;;;;;;3.15;1.40;;;4.70;99.90;;;;;;5069524;28;20400;-85
2021/11/30 12:19:47;;;;;;;3.35;1.80;;;;;;;;;;5067393;28;20058;-83
2021/11/30 12:22:15;;;;;;;2.72;1.70;;;;;;;;;;5084660;28;20036;-82
2021/11/30 12:24:47;;;;;;;3.08;1.80;;;4.70;99.90;;;;;;5070658;28;20056;-85
2021/11/30 12:27:22;;;;;;;3.63;2.08;;;4.70;99.90;;;;;;5067601;28;20037;-82
2021/11/30 12:29:49;;;;;;;2.85;1.80;;;4.80;99.90;;;;;;5069896;28;20055;-80
2021/11/30 12:32:34;;;;;;;3.47;2.00;;;;;;;;;;5065151;28;20056;-81
2021/11/30 12:35:06;;;;;;;4.75;1.92;;;3.70;99.90;;;;;;5062109;28;20067;-84
2021/11/30 12:37:33;;;;;;;3.15;2.10;;;4.70;99.90;;;;;;5067295;28;20511;-82
2021/11/30 12:40:06;;;;;;;3.17;2.10;;;;;;;;;;5061333;28;20037;-84
2021/11/30 12:42:38;;;;;;;2.75;1.98;;;4.80;99.90;;;;;;5063607;28;20035;-81
2021/11/30 12:45:05;;;;;;;3.92;1.80;;;4.80;99.90;;;;;;5077352;28;20125;-84
2021/11/30 12:47:31;;;;;;;2.92;1.60;;;;;;;;;;5064444;28;20369;-85
2021/11/30 12:49:57;;;;;;;3.15;1.58;;;;;;;;;;5065854;28;20040;-87
2021/11/30 12:52:43;;;;;;;5.35;2.45;;;5.00;99.90;;;;;;5084213;28;20111;-83
2021/11/30 12:55:13;;;;;;;3.78;1.77;;;5.00;99.90;;;;;;5072252;28;20036;-85
2021/11/30 12:57:41;;;;;;;4.40;1.92;;;4.90;99.90;;;;;;5054356;28;20029;-83
2021/11/30 13:00:09;;;;;;;3.60;1.90;;;4.90;99.90;;;;;;5052771;28;20032;-82
2021/11/30 13:02:36;;;;;;;3.33;1.88;;;;;;;;;;5066566;28;20536;-83
2021/11/30 13:05:09;;;;;;;3.70;2.08;;;;;;;;;;5081177;28;20032;-84
2021/11/30 13:07:47;;;;;;;4.65;1.83;;;5.00;99.90;;;;;;5059154;28;20033;-84
2021/11/30 13:10:21;;;;;;;3.17;1.88;;;5.00;99.90;;;;;;5056369;28;20501;-85
2021/11/30 13:12:47;;;;;;;3.42;2.10;;;5.00;99.90;;;;;;5083729;28;20021;-82
2021/11/30 13:15:13;;;;;;;4.50;2.17;;;;;;;;;;5064774;28;20030;-86
2021/11/30 13:17:39;;;;;;;4.60;2.42;;;5.00;99.90;;;;;;5068816;28;20066;-84